sensor_id;sensor_type;location;lat;lon;timestamp;P1;durP1;ratioP1;P2;durP2;ratioP2
24161;SDS011;12318;51.262;7.066;2022-07-29T00:01:45;5.90;;;1.40;;
24161;SDS011;12318;51.262;7.066;2022-07-29T00:04:13;5.70;;;1.50;;
24161;SDS011;12318;51.262;7.066;2022-07-29T00:06:39;7.20;;;1.52;;
24161;SDS011;12318;51.262;7.066;2022-07-29T00:09:05;9.93;;;1.52;;
24161;SDS011;12318;51.262;7.066;2022-07-29T00:11:31;8.75;;;1.85;;
24161;SDS011;12318;51.262;7.066;2022-07-29T00:13:58;10.25;;;1.83;;
24161;SDS011;12318;51.262;7.066;2022-07-29T00:16:23;11.13;;;1.73;;
24161;SDS011;12318;51.262;7.066;2022-07-29T00:18:49;5.72;;;1.60;;
24161;SDS011;12318;51.262;7.066;2022-07-29T00:21:15;5.70;;;1.85;;
24161;SDS011;12318;51.262;7.066;2022-07-29T00:23:48;10.60;;;1.30;;
24161;SDS011;12318;51.262;7.066;2022-07-29T00:26:14;7.72;;;2.00;;
24161;SDS011;12318;51.262;7.066;2022-07-29T00:28:39;8.57;;;1.60;;
24161;SDS011;12318;51.262;7.066;2022-07-29T00:31:05;10.20;;;1.60;;
24161;SDS011;12318;51.262;7.066;2022-07-29T00:33:31;11.50;;;1.85;;
24161;SDS011;12318;51.262;7.066;2022-07-29T00:35:57;6.22;;;1.33;;
24161;SDS011;12318;51.262;7.066;2022-07-29T00:38:22;10.52;;;1.67;;
24161;SDS011;12318;51.262;7.066;2022-07-29T00:40:48;4.00;;;1.33;;
24161;SDS011;12318;51.262;7.066;2022-07-29T00:43:22;8.75;;;2.47;;
24161;SDS011;12318;51.262;7.066;2022-07-29T00:45:48;9.38;;;1.70;;
24161;SDS011;12318;51.262;7.066;2022-07-29T00:48:14;11.73;;;1.50;;
24161;SDS011;12318;51.262;7.066;2022-07-29T00:50:39;11.00;;;1.75;;
24161;SDS011;12318;51.262;7.066;2022-07-29T00:55:54;7.43;;;1.80;;
24161;SDS011;12318;51.262;7.066;2022-07-29T00:58:20;8.15;;;1.40;;
24161;SDS011;12318;51.262;7.066;2022-07-29T01:00:46;11.63;;;1.63;;
24161;SDS011;12318;51.262;7.066;2022-07-29T01:05:57;7.28;;;2.00;;
24161;SDS011;12318;51.262;7.066;2022-07-29T01:08:23;6.57;;;1.60;;
24161;SDS011;12318;51.262;7.066;2022-07-29T01:10:49;9.32;;;1.60;;
24161;SDS011;12318;51.262;7.066;2022-07-29T01:13:23;7.40;;;1.67;;
24161;SDS011;12318;51.262;7.066;2022-07-29T01:15:51;7.20;;;1.88;;
24161;SDS011;12318;51.262;7.066;2022-07-29T01:18:24;7.70;;;1.27;;
24161;SDS011;12318;51.262;7.066;2022-07-29T01:34:57;7.70;;;1.63;;
24161;SDS011;12318;51.262;7.066;2022-07-29T01:40:03;5.63;;;1.88;;
24161;SDS011;12318;51.262;7.066;2022-07-29T01:42:47;7.45;;;1.55;;
24161;SDS011;12318;51.262;7.066;2022-07-29T01:48:13;9.75;;;1.50;;
24161;SDS011;12318;51.262;7.066;2022-07-29T01:50:49;11.00;;;1.73;;
24161;SDS011;12318;51.262;7.066;2022-07-29T01:53:35;8.52;;;1.50;;
24161;SDS011;12318;51.262;7.066;2022-07-29T01:56:07;9.48;;;1.95;;
24161;SDS011;12318;51.262;7.066;2022-07-29T01:58:35;12.27;;;1.77;;
24161;SDS011;12318;51.262;7.066;2022-07-29T02:01:05;7.63;;;1.77;;
24161;SDS011;12318;51.262;7.066;2022-07-29T02:06:22;7.05;;;2.00;;
24161;SDS011;12318;51.262;7.066;2022-07-29T02:08:49;10.38;;;1.70;;
24161;SDS011;12318;51.262;7.066;2022-07-29T02:11:17;3.58;;;1.40;;
24161;SDS011;12318;51.262;7.066;2022-07-29T02:13:43;6.53;;;1.85;;
24161;SDS011;12318;51.262;7.066;2022-07-29T02:16:09;6.47;;;1.40;;
24161;SDS011;12318;51.262;7.066;2022-07-29T02:18:37;7.97;;;1.58;;
24161;SDS011;12318;51.262;7.066;2022-07-29T02:21:05;5.97;;;1.58;;
24161;SDS011;12318;51.262;7.066;2022-07-29T02:23:38;7.97;;;1.60;;
24161;SDS011;12318;51.262;7.066;2022-07-29T02:26:04;7.30;;;1.42;;
24161;SDS011;12318;51.262;7.066;2022-07-29T02:28:31;11.73;;;2.10;;
24161;SDS011;12318;51.262;7.066;2022-07-29T02:30:59;9.52;;;1.60;;
24161;SDS011;12318;51.262;7.066;2022-07-29T02:33:29;9.65;;;2.00;;
24161;SDS011;12318;51.262;7.066;2022-07-29T02:35:56;10.50;;;1.80;;
24161;SDS011;12318;51.262;7.066;2022-07-29T02:38:23;8.95;;;1.65;;
24161;SDS011;12318;51.262;7.066;2022-07-29T02:41:11;6.55;;;1.70;;
24161;SDS011;12318;51.262;7.066;2022-07-29T02:43:49;9.02;;;1.80;;
24161;SDS011;12318;51.262;7.066;2022-07-29T02:46:21;8.65;;;2.40;;
24161;SDS011;12318;51.262;7.066;2022-07-29T02:49:09;10.13;;;1.77;;
24161;SDS011;12318;51.262;7.066;2022-07-29T02:51:43;12.57;;;1.70;;
24161;SDS011;12318;51.262;7.066;2022-07-29T02:54:30;9.68;;;1.60;;
24161;SDS011;12318;51.262;7.066;2022-07-29T02:57:04;8.68;;;1.65;;
24161;SDS011;12318;51.262;7.066;2022-07-29T02:59:36;11.13;;;1.60;;
24161;SDS011;12318;51.262;7.066;2022-07-29T03:02:05;10.82;;;1.80;;
24161;SDS011;12318;51.262;7.066;2022-07-29T03:04:39;13.25;;;1.80;;
24161;SDS011;12318;51.262;7.066;2022-07-29T03:07:07;5.65;;;1.60;;
24161;SDS011;12318;51.262;7.066;2022-07-29T03:09:34;9.70;;;1.70;;
24161;SDS011;12318;51.262;7.066;2022-07-29T03:12:00;9.38;;;1.83;;
24161;SDS011;12318;51.262;7.066;2022-07-29T03:14:26;6.40;;;1.73;;
24161;SDS011;12318;51.262;7.066;2022-07-29T03:16:53;15.65;;;2.08;;
24161;SDS011;12318;51.262;7.066;2022-07-29T03:19:19;6.40;;;1.58;;
24161;SDS011;12318;51.262;7.066;2022-07-29T03:21:45;6.20;;;1.70;;
24161;SDS011;12318;51.262;7.066;2022-07-29T03:24:24;6.20;;;1.60;;
24161;SDS011;12318;51.262;7.066;2022-07-29T03:26:50;4.93;;;1.67;;
24161;SDS011;12318;51.262;7.066;2022-07-29T03:29:16;9.48;;;1.55;;
24161;SDS011;12318;51.262;7.066;2022-07-29T03:31:42;11.52;;;1.60;;
24161;SDS011;12318;51.262;7.066;2022-07-29T03:34:15;9.77;;;1.80;;
24161;SDS011;12318;51.262;7.066;2022-07-29T03:36:40;8.75;;;2.00;;
24161;SDS011;12318;51.262;7.066;2022-07-29T03:39:06;7.95;;;1.70;;
24161;SDS011;12318;51.262;7.066;2022-07-29T03:41:34;9.05;;;1.70;;
24161;SDS011;12318;51.262;7.066;2022-07-29T03:44:03;7.82;;;1.90;;
24161;SDS011;12318;51.262;7.066;2022-07-29T03:46:32;8.00;;;1.80;;
24161;SDS011;12318;51.262;7.066;2022-07-29T03:49:00;5.72;;;2.10;;
24161;SDS011;12318;51.262;7.066;2022-07-29T03:51:27;12.48;;;2.05;;
24161;SDS011;12318;51.262;7.066;2022-07-29T03:53:54;6.45;;;2.10;;
24161;SDS011;12318;51.262;7.066;2022-07-29T03:56:23;9.40;;;2.05;;
24161;SDS011;12318;51.262;7.066;2022-07-29T03:58:50;5.05;;;2.17;;
24161;SDS011;12318;51.262;7.066;2022-07-29T04:01:18;13.68;;;2.97;;
24161;SDS011;12318;51.262;7.066;2022-07-29T04:03:45;11.77;;;2.40;;
24161;SDS011;12318;51.262;7.066;2022-07-29T04:06:11;9.00;;;2.28;;
24161;SDS011;12318;51.262;7.066;2022-07-29T04:08:37;10.20;;;2.35;;
24161;SDS011;12318;51.262;7.066;2022-07-29T04:11:04;9.07;;;2.10;;
24161;SDS011;12318;51.262;7.066;2022-07-29T04:13:48;15.70;;;2.10;;
24161;SDS011;12318;51.262;7.066;2022-07-29T04:16:14;7.55;;;1.90;;
24161;SDS011;12318;51.262;7.066;2022-07-29T04:18:40;10.00;;;1.88;;
24161;SDS011;12318;51.262;7.066;2022-07-29T04:21:05;9.82;;;1.98;;
24161;SDS011;12318;51.262;7.066;2022-07-29T04:23:46;12.45;;;2.13;;
24161;SDS011;12318;51.262;7.066;2022-07-29T04:26:15;17.65;;;2.03;;
24161;SDS011;12318;51.262;7.066;2022-07-29T04:28:44;8.07;;;1.77;;
24161;SDS011;12318;51.262;7.066;2022-07-29T04:31:11;7.93;;;1.70;;
24161;SDS011;12318;51.262;7.066;2022-07-29T04:33:56;6.95;;;1.90;;
24161;SDS011;12318;51.262;7.066;2022-07-29T04:36:21;20.70;;;1.90;;
24161;SDS011;12318;51.262;7.066;2022-07-29T04:38:47;11.35;;;1.90;;
24161;SDS011;12318;51.262;7.066;2022-07-29T04:41:13;12.10;;;2.10;;
24161;SDS011;12318;51.262;7.066;2022-07-29T04:43:39;7.10;;;1.70;;
24161;SDS011;12318;51.262;7.066;2022-07-29T04:46:05;6.53;;;1.75;;
24161;SDS011;12318;51.262;7.066;2022-07-29T04:48:32;9.52;;;1.90;;
24161;SDS011;12318;51.262;7.066;2022-07-29T04:50:58;8.95;;;1.83;;
24161;SDS011;12318;51.262;7.066;2022-07-29T04:53:25;14.32;;;1.80;;
24161;SDS011;12318;51.262;7.066;2022-07-29T04:55:51;18.15;;;3.90;;
24161;SDS011;12318;51.262;7.066;2022-07-29T04:58:17;13.30;;;2.10;;
24161;SDS011;12318;51.262;7.066;2022-07-29T05:00:43;8.40;;;1.98;;
24161;SDS011;12318;51.262;7.066;2022-07-29T05:03:13;9.07;;;1.90;;
24161;SDS011;12318;51.262;7.066;2022-07-29T05:05:39;15.85;;;2.20;;
24161;SDS011;12318;51.262;7.066;2022-07-29T05:08:05;5.72;;;1.75;;
24161;SDS011;12318;51.262;7.066;2022-07-29T05:10:31;10.45;;;1.70;;
24161;SDS011;12318;51.262;7.066;2022-07-29T05:13:04;7.28;;;1.85;;
24161;SDS011;12318;51.262;7.066;2022-07-29T05:15:31;8.32;;;1.77;;
24161;SDS011;12318;51.262;7.066;2022-07-29T05:17:57;7.28;;;1.60;;
24161;SDS011;12318;51.262;7.066;2022-07-29T05:20:23;3.20;;;1.20;;
24161;SDS011;12318;51.262;7.066;2022-07-29T05:22:52;6.15;;;1.40;;
24161;SDS011;12318;51.262;7.066;2022-07-29T05:25:18;9.38;;;1.60;;
24161;SDS011;12318;51.262;7.066;2022-07-29T05:27:43;6.10;;;1.55;;
24161;SDS011;12318;51.262;7.066;2022-07-29T05:30:09;4.55;;;1.75;;
24161;SDS011;12318;51.262;7.066;2022-07-29T05:32:46;6.93;;;1.65;;
24161;SDS011;12318;51.262;7.066;2022-07-29T05:35:12;7.30;;;1.80;;
24161;SDS011;12318;51.262;7.066;2022-07-29T05:37:38;6.88;;;1.85;;
24161;SDS011;12318;51.262;7.066;2022-07-29T05:40:05;7.38;;;1.58;;
24161;SDS011;12318;51.262;7.066;2022-07-29T05:45:33;7.35;;;1.63;;
24161;SDS011;12318;51.262;7.066;2022-07-29T05:47:58;8.02;;;1.58;;
24161;SDS011;12318;51.262;7.066;2022-07-29T05:50:24;5.07;;;1.70;;
24161;SDS011;12318;51.262;7.066;2022-07-29T05:52:56;8.77;;;1.63;;
24161;SDS011;12318;51.262;7.066;2022-07-29T05:55:22;7.25;;;1.42;;
24161;SDS011;12318;51.262;7.066;2022-07-29T05:57:47;11.63;;;1.88;;
24161;SDS011;12318;51.262;7.066;2022-07-29T06:00:13;6.47;;;1.88;;
24161;SDS011;12318;51.262;7.066;2022-07-29T06:02:40;9.70;;;2.00;;
24161;SDS011;12318;51.262;7.066;2022-07-29T06:05:05;5.13;;;1.63;;
24161;SDS011;12318;51.262;7.066;2022-07-29T06:07:32;6.93;;;1.70;;
24161;SDS011;12318;51.262;7.066;2022-07-29T06:09:58;15.07;;;1.75;;
24161;SDS011;12318;51.262;7.066;2022-07-29T06:12:40;9.55;;;1.70;;
24161;SDS011;12318;51.262;7.066;2022-07-29T06:15:08;13.93;;;2.17;;
24161;SDS011;12318;51.262;7.066;2022-07-29T06:17:34;14.10;;;2.03;;
24161;SDS011;12318;51.262;7.066;2022-07-29T06:20:00;10.52;;;2.13;;
24161;SDS011;12318;51.262;7.066;2022-07-29T06:22:34;8.25;;;1.67;;
24161;SDS011;12318;51.262;7.066;2022-07-29T06:25:00;9.05;;;1.95;;
24161;SDS011;12318;51.262;7.066;2022-07-29T06:27:27;10.55;;;1.95;;
24161;SDS011;12318;51.262;7.066;2022-07-29T06:29:52;10.65;;;1.60;;
24161;SDS011;12318;51.262;7.066;2022-07-29T06:32:28;7.68;;;1.90;;
24161;SDS011;12318;51.262;7.066;2022-07-29T06:34:56;4.22;;;1.55;;
24161;SDS011;12318;51.262;7.066;2022-07-29T06:37:21;6.78;;;1.48;;
24161;SDS011;12318;51.262;7.066;2022-07-29T06:39:47;9.07;;;1.70;;
24161;SDS011;12318;51.262;7.066;2022-07-29T06:42:30;6.50;;;1.73;;
24161;SDS011;12318;51.262;7.066;2022-07-29T06:44:56;9.63;;;1.23;;
24161;SDS011;12318;51.262;7.066;2022-07-29T06:47:22;7.53;;;1.77;;
24161;SDS011;12318;51.262;7.066;2022-07-29T06:49:47;9.32;;;1.75;;
24161;SDS011;12318;51.262;7.066;2022-07-29T06:52:23;7.00;;;1.65;;
24161;SDS011;12318;51.262;7.066;2022-07-29T06:54:50;13.90;;;1.90;;
24161;SDS011;12318;51.262;7.066;2022-07-29T06:57:16;9.77;;;1.80;;
24161;SDS011;12318;51.262;7.066;2022-07-29T06:59:41;10.90;;;1.92;;
24161;SDS011;12318;51.262;7.066;2022-07-29T07:02:07;11.25;;;2.28;;
24161;SDS011;12318;51.262;7.066;2022-07-29T07:04:32;7.47;;;1.92;;
24161;SDS011;12318;51.262;7.066;2022-07-29T07:06:58;8.35;;;1.60;;
24161;SDS011;12318;51.262;7.066;2022-07-29T07:09:24;12.15;;;2.00;;
24161;SDS011;12318;51.262;7.066;2022-07-29T07:11:50;9.57;;;2.00;;
24161;SDS011;12318;51.262;7.066;2022-07-29T07:14:16;6.75;;;2.20;;
24161;SDS011;12318;51.262;7.066;2022-07-29T07:16:42;6.70;;;1.75;;
24161;SDS011;12318;51.262;7.066;2022-07-29T07:19:07;12.23;;;1.52;;
24161;SDS011;12318;51.262;7.066;2022-07-29T07:21:33;9.05;;;1.77;;
24161;SDS011;12318;51.262;7.066;2022-07-29T07:24:08;7.82;;;2.10;;
24161;SDS011;12318;51.262;7.066;2022-07-29T07:26:34;7.45;;;2.10;;
24161;SDS011;12318;51.262;7.066;2022-07-29T07:28:59;8.02;;;1.80;;
24161;SDS011;12318;51.262;7.066;2022-07-29T07:31:25;11.27;;;2.00;;
24161;SDS011;12318;51.262;7.066;2022-07-29T07:33:57;7.63;;;2.00;;
24161;SDS011;12318;51.262;7.066;2022-07-29T07:36:23;4.97;;;1.85;;
24161;SDS011;12318;51.262;7.066;2022-07-29T07:38:49;10.52;;;1.98;;
24161;SDS011;12318;51.262;7.066;2022-07-29T07:41:15;9.43;;;1.88;;
24161;SDS011;12318;51.262;7.066;2022-07-29T07:43:41;11.73;;;2.03;;
24161;SDS011;12318;51.262;7.066;2022-07-29T07:46:06;7.75;;;2.10;;
24161;SDS011;12318;51.262;7.066;2022-07-29T07:48:32;9.05;;;1.70;;
24161;SDS011;12318;51.262;7.066;2022-07-29T07:50:59;11.15;;;1.70;;
24161;SDS011;12318;51.262;7.066;2022-07-29T07:53:26;9.30;;;1.80;;
24161;SDS011;12318;51.262;7.066;2022-07-29T07:55:51;12.98;;;1.88;;
24161;SDS011;12318;51.262;7.066;2022-07-29T07:58:17;11.48;;;1.70;;
24161;SDS011;12318;51.262;7.066;2022-07-29T08:00:43;8.68;;;1.90;;
24161;SDS011;12318;51.262;7.066;2022-07-29T08:03:09;13.75;;;2.13;;
24161;SDS011;12318;51.262;7.066;2022-07-29T08:05:37;8.75;;;1.95;;
24161;SDS011;12318;51.262;7.066;2022-07-29T08:08:03;9.48;;;2.08;;
24161;SDS011;12318;51.262;7.066;2022-07-29T08:10:29;7.95;;;2.40;;
24161;SDS011;12318;51.262;7.066;2022-07-29T08:13:17;9.85;;;2.25;;
24161;SDS011;12318;51.262;7.066;2022-07-29T08:15:43;10.25;;;2.20;;
24161;SDS011;12318;51.262;7.066;2022-07-29T08:18:10;8.45;;;2.38;;
24161;SDS011;12318;51.262;7.066;2022-07-29T08:20:39;8.68;;;2.08;;
24161;SDS011;12318;51.262;7.066;2022-07-29T08:23:05;8.07;;;2.10;;
24161;SDS011;12318;51.262;7.066;2022-07-29T08:25:33;10.65;;;2.28;;
24161;SDS011;12318;51.262;7.066;2022-07-29T08:28:01;12.77;;;2.40;;
24161;SDS011;12318;51.262;7.066;2022-07-29T08:30:27;12.10;;;2.40;;
24161;SDS011;12318;51.262;7.066;2022-07-29T08:32:53;6.53;;;1.85;;
24161;SDS011;12318;51.262;7.066;2022-07-29T08:35:19;7.50;;;2.15;;
24161;SDS011;12318;51.262;7.066;2022-07-29T08:37:45;10.82;;;2.40;;
24161;SDS011;12318;51.262;7.066;2022-07-29T08:40:12;7.30;;;2.42;;
24161;SDS011;12318;51.262;7.066;2022-07-29T08:42:39;8.25;;;2.53;;
24161;SDS011;12318;51.262;7.066;2022-07-29T08:45:08;9.65;;;2.30;;
24161;SDS011;12318;51.262;7.066;2022-07-29T08:47:34;10.88;;;2.45;;
24161;SDS011;12318;51.262;7.066;2022-07-29T08:50:05;7.65;;;2.45;;
24161;SDS011;12318;51.262;7.066;2022-07-29T08:52:33;5.05;;;2.10;;
24161;SDS011;12318;51.262;7.066;2022-07-29T08:55:01;6.95;;;2.00;;
24161;SDS011;12318;51.262;7.066;2022-07-29T08:57:27;7.13;;;2.15;;
24161;SDS011;12318;51.262;7.066;2022-07-29T08:59:53;13.02;;;2.40;;
24161;SDS011;12318;51.262;7.066;2022-07-29T09:02:20;14.77;;;2.47;;
24161;SDS011;12318;51.262;7.066;2022-07-29T09:04:47;9.35;;;2.25;;
24161;SDS011;12318;51.262;7.066;2022-07-29T09:07:17;8.13;;;2.33;;
24161;SDS011;12318;51.262;7.066;2022-07-29T09:09:43;8.55;;;2.00;;
24161;SDS011;12318;51.262;7.066;2022-07-29T09:12:10;6.88;;;2.30;;
24161;SDS011;12318;51.262;7.066;2022-07-29T09:14:40;13.70;;;2.75;;
24161;SDS011;12318;51.262;7.066;2022-07-29T09:17:06;10.93;;;2.63;;
24161;SDS011;12318;51.262;7.066;2022-07-29T09:19:33;9.82;;;2.50;;
24161;SDS011;12318;51.262;7.066;2022-07-29T09:22:00;14.55;;;2.47;;
24161;SDS011;12318;51.262;7.066;2022-07-29T09:24:40;6.60;;;2.40;;
24161;SDS011;12318;51.262;7.066;2022-07-29T09:29:44;9.02;;;2.70;;
24161;SDS011;12318;51.262;7.066;2022-07-29T09:32:23;10.35;;;2.60;;
24161;SDS011;12318;51.262;7.066;2022-07-29T09:34:49;10.38;;;2.28;;
24161;SDS011;12318;51.262;7.066;2022-07-29T09:37:27;15.40;;;2.55;;
24161;SDS011;12318;51.262;7.066;2022-07-29T09:39:54;7.45;;;2.50;;
24161;SDS011;12318;51.262;7.066;2022-07-29T09:42:30;10.93;;;2.83;;
24161;SDS011;12318;51.262;7.066;2022-07-29T09:44:58;9.85;;;2.28;;
24161;SDS011;12318;51.262;7.066;2022-07-29T09:47:27;9.25;;;2.28;;
24161;SDS011;12318;51.262;7.066;2022-07-29T09:50:15;9.68;;;2.38;;
24161;SDS011;12318;51.262;7.066;2022-07-29T09:52:47;11.82;;;2.40;;
24161;SDS011;12318;51.262;7.066;2022-07-29T09:55:15;13.18;;;2.80;;
24161;SDS011;12318;51.262;7.066;2022-07-29T09:57:42;8.95;;;2.55;;
24161;SDS011;12318;51.262;7.066;2022-07-29T10:00:10;7.97;;;2.60;;
24161;SDS011;12318;51.262;7.066;2022-07-29T10:02:43;12.43;;;2.30;;
24161;SDS011;12318;51.262;7.066;2022-07-29T10:05:21;9.57;;;2.40;;
24161;SDS011;12318;51.262;7.066;2022-07-29T10:07:52;5.80;;;2.35;;
24161;SDS011;12318;51.262;7.066;2022-07-29T10:10:25;11.60;;;2.92;;
24161;SDS011;12318;51.262;7.066;2022-07-29T10:12:57;7.35;;;2.50;;
24161;SDS011;12318;51.262;7.066;2022-07-29T10:15:25;7.88;;;2.47;;
24161;SDS011;12318;51.262;7.066;2022-07-29T10:17:53;9.27;;;2.50;;
24161;SDS011;12318;51.262;7.066;2022-07-29T10:20:21;10.40;;;2.60;;
24161;SDS011;12318;51.262;7.066;2022-07-29T10:22:59;12.38;;;2.83;;
24161;SDS011;12318;51.262;7.066;2022-07-29T10:25:25;10.40;;;4.72;;
24161;SDS011;12318;51.262;7.066;2022-07-29T10:27:52;9.48;;;4.30;;
24161;SDS011;12318;51.262;7.066;2022-07-29T10:30:20;8.77;;;3.30;;
24161;SDS011;12318;51.262;7.066;2022-07-29T10:38:44;12.93;;;2.67;;
24161;SDS011;12318;51.262;7.066;2022-07-29T10:47:07;7.32;;;2.60;;
24161;SDS011;12318;51.262;7.066;2022-07-29T10:49:33;11.27;;;2.70;;
24161;SDS011;12318;51.262;7.066;2022-07-29T10:52:06;12.70;;;2.67;;
24161;SDS011;12318;51.262;7.066;2022-07-29T10:54:39;8.35;;;2.40;;
24161;SDS011;12318;51.262;7.066;2022-07-29T10:57:15;10.80;;;2.90;;
24161;SDS011;12318;51.262;7.066;2022-07-29T10:59:44;8.65;;;2.58;;
24161;SDS011;12318;51.262;7.066;2022-07-29T11:05:21;5.70;;;2.05;;
24161;SDS011;12318;51.262;7.066;2022-07-29T11:10:39;8.90;;;2.13;;
24161;SDS011;12318;51.262;7.066;2022-07-29T11:16:08;5.78;;;2.50;;
24161;SDS011;12318;51.262;7.066;2022-07-29T11:18:34;8.43;;;2.40;;
24161;SDS011;12318;51.262;7.066;2022-07-29T11:21:00;9.32;;;2.50;;
24161;SDS011;12318;51.262;7.066;2022-07-29T11:31:16;17.52;;;2.72;;
24161;SDS011;12318;51.262;7.066;2022-07-29T11:34:30;12.05;;;2.42;;
24161;SDS011;12318;51.262;7.066;2022-07-29T11:39:39;5.00;;;1.98;;
24161;SDS011;12318;51.262;7.066;2022-07-29T11:45:22;13.38;;;2.63;;
24161;SDS011;12318;51.262;7.066;2022-07-29T11:47:53;6.97;;;2.08;;
24161;SDS011;12318;51.262;7.066;2022-07-29T11:50:40;9.63;;;2.15;;
24161;SDS011;12318;51.262;7.066;2022-07-29T11:53:10;9.27;;;2.10;;
24161;SDS011;12318;51.262;7.066;2022-07-29T11:55:40;8.73;;;2.13;;
24161;SDS011;12318;51.262;7.066;2022-07-29T11:58:06;5.10;;;2.08;;
24161;SDS011;12318;51.262;7.066;2022-07-29T12:00:40;6.40;;;1.90;;
24161;SDS011;12318;51.262;7.066;2022-07-29T12:06:13;6.85;;;1.65;;
24161;SDS011;12318;51.262;7.066;2022-07-29T12:08:40;8.27;;;1.92;;
24161;SDS011;12318;51.262;7.066;2022-07-29T12:11:18;8.40;;;1.92;;
24161;SDS011;12318;51.262;7.066;2022-07-29T12:13:46;7.35;;;1.92;;
24161;SDS011;12318;51.262;7.066;2022-07-29T12:16:12;8.25;;;1.80;;
24161;SDS011;12318;51.262;7.066;2022-07-29T12:18:38;10.88;;;2.10;;
24161;SDS011;12318;51.262;7.066;2022-07-29T12:21:03;9.68;;;1.83;;
24161;SDS011;12318;51.262;7.066;2022-07-29T12:23:32;7.55;;;1.75;;
24161;SDS011;12318;51.262;7.066;2022-07-29T12:25:58;7.63;;;2.22;;
24161;SDS011;12318;51.262;7.066;2022-07-29T12:28:24;10.70;;;1.92;;
24161;SDS011;12318;51.262;7.066;2022-07-29T12:30:50;7.05;;;1.60;;
24161;SDS011;12318;51.262;7.066;2022-07-29T12:33:20;13.82;;;2.10;;
24161;SDS011;12318;51.262;7.066;2022-07-29T12:35:59;9.38;;;2.28;;
24161;SDS011;12318;51.262;7.066;2022-07-29T12:38:26;9.02;;;1.85;;
24161;SDS011;12318;51.262;7.066;2022-07-29T12:40:53;7.85;;;2.42;;
24161;SDS011;12318;51.262;7.066;2022-07-29T12:43:21;5.93;;;1.70;;
24161;SDS011;12318;51.262;7.066;2022-07-29T12:45:48;5.40;;;1.95;;
24161;SDS011;12318;51.262;7.066;2022-07-29T12:48:16;14.40;;;2.20;;
24161;SDS011;12318;51.262;7.066;2022-07-29T12:50:56;8.38;;;2.05;;
24161;SDS011;12318;51.262;7.066;2022-07-29T12:53:26;11.57;;;1.77;;
24161;SDS011;12318;51.262;7.066;2022-07-29T12:55:53;6.72;;;2.10;;
24161;SDS011;12318;51.262;7.066;2022-07-29T12:58:27;7.70;;;1.88;;
24161;SDS011;12318;51.262;7.066;2022-07-29T13:01:14;8.65;;;2.00;;
24161;SDS011;12318;51.262;7.066;2022-07-29T13:03:43;17.67;;;2.20;;
24161;SDS011;12318;51.262;7.066;2022-07-29T13:06:28;6.28;;;2.03;;
24161;SDS011;12318;51.262;7.066;2022-07-29T13:09:13;11.02;;;2.15;;
24161;SDS011;12318;51.262;7.066;2022-07-29T13:11:40;6.45;;;2.00;;
24161;SDS011;12318;51.262;7.066;2022-07-29T13:14:08;8.00;;;2.10;;
24161;SDS011;12318;51.262;7.066;2022-07-29T13:16:36;7.80;;;2.33;;
24161;SDS011;12318;51.262;7.066;2022-07-29T13:19:31;8.73;;;2.45;;
24161;SDS011;12318;51.262;7.066;2022-07-29T13:22:09;12.85;;;2.30;;
24161;SDS011;12318;51.262;7.066;2022-07-29T13:27:34;7.18;;;2.22;;
24161;SDS011;12318;51.262;7.066;2022-07-29T13:30:11;6.78;;;2.10;;
24161;SDS011;12318;51.262;7.066;2022-07-29T13:32:38;8.15;;;2.03;;
24161;SDS011;12318;51.262;7.066;2022-07-29T13:35:05;10.38;;;2.30;;
24161;SDS011;12318;51.262;7.066;2022-07-29T13:37:32;18.92;;;2.28;;
24161;SDS011;12318;51.262;7.066;2022-07-29T13:40:02;10.18;;;2.88;;
24161;SDS011;12318;51.262;7.066;2022-07-29T13:42:29;11.95;;;2.33;;
24161;SDS011;12318;51.262;7.066;2022-07-29T13:44:56;9.13;;;2.30;;
24161;SDS011;12318;51.262;7.066;2022-07-29T13:47:22;13.65;;;2.60;;
24161;SDS011;12318;51.262;7.066;2022-07-29T13:49:48;10.32;;;2.60;;
24161;SDS011;12318;51.262;7.066;2022-07-29T13:52:14;8.20;;;2.38;;
24161;SDS011;12318;51.262;7.066;2022-07-29T13:54:40;11.38;;;2.50;;
24161;SDS011;12318;51.262;7.066;2022-07-29T13:57:06;11.38;;;2.40;;
24161;SDS011;12318;51.262;7.066;2022-07-29T13:59:32;7.25;;;2.15;;
24161;SDS011;12318;51.262;7.066;2022-07-29T14:01:58;11.15;;;2.75;;
24161;SDS011;12318;51.262;7.066;2022-07-29T14:04:24;11.85;;;3.00;;
24161;SDS011;12318;51.262;7.066;2022-07-29T14:06:50;9.98;;;2.53;;
24161;SDS011;12318;51.262;7.066;2022-07-29T14:09:16;8.93;;;2.22;;
24161;SDS011;12318;51.262;7.066;2022-07-29T14:11:42;10.73;;;2.42;;
24161;SDS011;12318;51.262;7.066;2022-07-29T14:14:09;11.63;;;2.60;;
24161;SDS011;12318;51.262;7.066;2022-07-29T14:16:35;13.20;;;2.92;;
24161;SDS011;12318;51.262;7.066;2022-07-29T14:19:01;8.05;;;2.72;;
24161;SDS011;12318;51.262;7.066;2022-07-29T14:21:27;6.25;;;2.63;;
24161;SDS011;12318;51.262;7.066;2022-07-29T14:23:55;9.75;;;2.63;;
24161;SDS011;12318;51.262;7.066;2022-07-29T14:26:21;13.25;;;2.70;;
24161;SDS011;12318;51.262;7.066;2022-07-29T14:28:47;8.13;;;3.00;;
24161;SDS011;12318;51.262;7.066;2022-07-29T14:34:01;10.95;;;3.47;;
24161;SDS011;12318;51.262;7.066;2022-07-29T14:36:27;9.35;;;2.67;;
24161;SDS011;12318;51.262;7.066;2022-07-29T14:38:53;14.13;;;2.40;;
24161;SDS011;12318;51.262;7.066;2022-07-29T14:41:18;8.15;;;2.63;;
24161;SDS011;12318;51.262;7.066;2022-07-29T14:43:56;9.73;;;2.47;;
24161;SDS011;12318;51.262;7.066;2022-07-29T14:46:22;9.05;;;2.60;;
24161;SDS011;12318;51.262;7.066;2022-07-29T14:48:48;26.67;;;2.90;;
24161;SDS011;12318;51.262;7.066;2022-07-29T14:51:13;9.00;;;2.70;;
24161;SDS011;12318;51.262;7.066;2022-07-29T14:53:39;10.48;;;2.55;;
24161;SDS011;12318;51.262;7.066;2022-07-29T14:56:05;10.43;;;2.58;;
24161;SDS011;12318;51.262;7.066;2022-07-29T14:58:30;11.90;;;3.10;;
24161;SDS011;12318;51.262;7.066;2022-07-29T15:00:56;7.80;;;2.90;;
24161;SDS011;12318;51.262;7.066;2022-07-29T15:03:21;15.02;;;2.78;;
24161;SDS011;12318;51.262;7.066;2022-07-29T15:05:48;12.98;;;2.80;;
24161;SDS011;12318;51.262;7.066;2022-07-29T15:08:13;9.73;;;3.22;;
24161;SDS011;12318;51.262;7.066;2022-07-29T15:10:39;8.00;;;2.67;;
24161;SDS011;12318;51.262;7.066;2022-07-29T15:13:05;11.13;;;2.97;;
24161;SDS011;12318;51.262;7.066;2022-07-29T15:15:31;12.85;;;3.03;;
24161;SDS011;12318;51.262;7.066;2022-07-29T15:17:57;10.23;;;3.25;;
24161;SDS011;12318;51.262;7.066;2022-07-29T15:20:22;17.02;;;2.72;;
24161;SDS011;12318;51.262;7.066;2022-07-29T15:22:50;10.60;;;2.80;;
24161;SDS011;12318;51.262;7.066;2022-07-29T15:25:16;11.13;;;3.10;;
24161;SDS011;12318;51.262;7.066;2022-07-29T15:27:42;7.22;;;2.53;;
24161;SDS011;12318;51.262;7.066;2022-07-29T15:30:08;13.13;;;2.53;;
24161;SDS011;12318;51.262;7.066;2022-07-29T15:32:34;12.40;;;2.78;;
24161;SDS011;12318;51.262;7.066;2022-07-29T15:35:00;9.85;;;3.35;;
24161;SDS011;12318;51.262;7.066;2022-07-29T15:37:25;11.48;;;2.90;;
24161;SDS011;12318;51.262;7.066;2022-07-29T15:39:53;14.10;;;3.20;;
24161;SDS011;12318;51.262;7.066;2022-07-29T15:42:19;12.55;;;2.90;;
24161;SDS011;12318;51.262;7.066;2022-07-29T15:44:44;10.02;;;2.67;;
24161;SDS011;12318;51.262;7.066;2022-07-29T15:47:10;6.60;;;2.50;;
24161;SDS011;12318;51.262;7.066;2022-07-29T15:49:36;9.40;;;2.75;;
24161;SDS011;12318;51.262;7.066;2022-07-29T15:52:05;13.43;;;3.20;;
24161;SDS011;12318;51.262;7.066;2022-07-29T15:54:41;7.95;;;2.88;;
24161;SDS011;12318;51.262;7.066;2022-07-29T15:57:07;9.50;;;3.50;;
24161;SDS011;12318;51.262;7.066;2022-07-29T15:59:32;6.45;;;2.78;;
24161;SDS011;12318;51.262;7.066;2022-07-29T16:01:58;10.13;;;2.85;;
24161;SDS011;12318;51.262;7.066;2022-07-29T16:04:37;9.48;;;2.70;;
24161;SDS011;12318;51.262;7.066;2022-07-29T16:07:03;7.55;;;2.80;;
24161;SDS011;12318;51.262;7.066;2022-07-29T16:09:28;8.77;;;2.67;;